Flight Track Log - Related Links

Times and Time Zones

All times are in EST time to prevent confusion due to time zone crossing. See the FIN666 flight status page for this flight to view local times or setup timezone preferences in your user account.

Time Position Orientation Groundspeed Altitude Reporting Facility
EST Latitude Longitude Course Direction KTS MPH feet Rate Location/Type
Tue 07:21:00 AM 55.8592 13.1550 49° Northeast  Level Estimated
Tue 07:22:00 AM 55.9392 13.3227 50° Northeast  Level Estimated
Tue 07:23:00 AM 56.0189 13.4911 50° Northeast  Level Estimated
Tue 07:24:00 AM 56.0985 13.6603 50° Northeast  Level Estimated
Tue 07:25:00 AM 56.1777 13.8301 50° Northeast  Level Estimated
Tue 07:26:00 AM 56.2568 14.0006 50° Northeast  Level Estimated
Tue 07:27:00 AM 56.3368 14.1745 50° Northeast  Level Estimated
Tue 07:28:00 AM 56.4166 14.3491 50° Northeast  Level Estimated
Tue 07:29:00 AM 56.4962 14.5245 51° Northeast  Level Estimated
Tue 07:30:00 AM 56.5755 14.7006 51° Northeast  Level Estimated
Tue 07:31:00 AM 56.6546 14.8774 51° Northeast  Level Estimated
Tue 07:32:00 AM 56.7334 15.0550 51° Northeast  Level Estimated
Tue 07:33:00 AM 56.8119 15.2333 51° Northeast  Level Estimated
Tue 07:34:00 AM 56.8902 15.4124 51° Northeast  Level Estimated
Tue 07:35:00 AM 56.9695 15.5951 51° Northeast  Level Estimated
Tue 07:36:00 AM 57.0485 15.7785 52° Northeast  Level Estimated
Tue 07:37:00 AM 57.1273 15.9628 52° Northeast  Level Estimated
Tue 07:38:00 AM 57.2057 16.1478 52° Northeast  Level Estimated
Tue 07:39:00 AM 57.2839 16.3336 52° Northeast  Level Estimated
Tue 07:40:00 AM 57.3619 16.5202 52° Northeast  Level Estimated
Tue 07:41:00 AM 57.4395 16.7076 52° Northeast  Level Estimated
Tue 07:42:00 AM 57.5169 16.8958 53° Northeast  Level Estimated
Tue 07:43:00 AM 57.5940 17.0848 53° Northeast  Level Estimated
Tue 07:44:00 AM 57.6708 17.2746 53° Northeast  Level Estimated
Tue 07:45:00 AM 57.7473 17.4652 53° Northeast  Level Estimated
Tue 07:46:00 AM 57.8235 17.6565 53° Northeast  Level Estimated
Tue 07:47:00 AM 57.8995 17.8488 53° Northeast  Level Estimated
Tue 07:48:00 AM 57.9751 18.0418 53° Northeast  Level Estimated
Tue 07:49:00 AM 58.0505 18.2356 54° Northeast  Level Estimated
Tue 07:50:00 AM 58.1255 18.4303 54° Northeast  Level Estimated
Tue 07:51:00 AM 58.2003 18.6258 54° Northeast  Level Estimated
Tue 07:52:00 AM 58.2747 18.8221 54° Northeast  Level Estimated
Tue 07:53:00 AM 58.3489 19.0192 54° Northeast  Level Estimated
Tue 07:54:00 AM 58.4227 19.2171 54° Northeast  Level Estimated
Tue 07:55:00 AM 58.4963 19.4159 55° Northeast  Level Estimated
Tue 07:56:00 AM 58.5695 19.6155 55° Northeast  Level Estimated
Tue 07:57:00 AM 58.6425 19.8160 55° Northeast  Level Estimated
Tue 07:58:00 AM 58.7151 20.0173 55° Northeast  Level Estimated
Tue 07:59:00 AM 58.7874 20.2194 55° Northeast  Level Estimated
Tue 08:00:00 AM 58.8594 20.4224 55° Northeast  Level Estimated
Tue 08:01:00 AM 58.9310 20.6262 56° Northeast  Level Estimated
Tue 08:02:00 AM 59.0024 20.8308 56° Northeast  Level Estimated
Tue 08:03:00 AM 59.0734 21.0364 56° Northeast  Level Estimated
Tue 08:04:00 AM 59.1441 21.2427 56° Northeast  Level Estimated
Tue 08:05:00 AM 59.2144 21.4499 56° Northeast  Level Estimated
Tue 08:06:00 AM 59.2845 21.6580 57° Northeast  Level Estimated
Tue 08:07:00 AM 59.3542 21.8669 57° Northeast  Level Estimated
Tue 08:08:00 AM 59.4235 22.0767 57° Northeast  Level Estimated
Tue 08:09:00 AM 59.4926 22.2873 57° Northeast  Level Estimated
Tue 08:10:00 AM 59.5612 22.4988 57° Northeast  Level Estimated
Tue 08:11:00 AM 59.6296 22.7112 57° Northeast  Level Estimated
Tue 08:12:00 AM 59.6976 22.9244 58° Northeast  Level Estimated
Tue 08:13:00 AM 59.7652 23.1385 58° Northeast  Level Estimated
Tue 08:14:00 AM 59.8325 23.3534 58° Northeast  Level Estimated
Tue 08:15:00 AM 59.8995 23.5693 58° Northeast  Level Estimated
Tue 08:16:00 AM 59.9661 23.7859 58° Northeast  Level Estimated
Tue 08:17:00 AM 60.0323 24.0035 59° Northeast  Level Estimated
Tue 08:18:00 AM 60.0982 24.2219 59° Northeast  Level Estimated
Tue 08:19:00 AM 60.1637 24.4412 59° Northeast  Level Estimated
Tue 08:20:00 AM 60.2289 24.6614 59° Northeast  Level Estimated
Tue 08:21:00 AM 60.2937 24.8825 59° Northeast  Level Estimated
Tue 08:22:00 AM 60.3172 24.9633 60° Northeast  Level Estimated
Tue 08:23:00 AM 60.3172 24.9633 37° Northeast  Level Estimated
Tue 08:24:00 AM 60.3172 24.9633 37° Northeast  Level Estimated
Tue 08:25:00 AM 60.3172 24.9633 37° Northeast  Level Estimated
Tue 08:26:00 AM 60.3172 24.9633 37° Northeast  Level Estimated
Tue 08:27:00 AM 60.3172 24.9633 37° Northeast  Level Estimated
Tue 08:28:00 AM 60.3172 24.9633 37° Northeast  Level Estimated
Tue 08:29:00 AM 60.3172 24.9633 37° Northeast  Level Estimated
Tue 08:30:00 AM 60.3172 24.9633 37° Northeast  Level Estimated
Tue 08:31:00 AM 60.3172 24.9633 37° Northeast  Level Estimated
Tue 08:32:00 AM 60.3172 24.9633 37° Northeast  Level Estimated
Tue 08:33:00 AM 60.3172 24.9633 37° Northeast  Level Estimated
Tue 08:34:00 AM 60.3172 24.9633 37° Northeast  Level Estimated
Tue 08:35:00 AM 60.3172 24.9633 37° Northeast  Level Estimated
Tue 08:36:00 AM 60.3172 24.9633 37° Northeast  Level Estimated
Tue 08:37:00 AM 60.3172 24.9633 37° Northeast  Level Estimated

Login

Don't have an account? Register now (free) for customized features, flight alerts, and more!